Accueil
METAR-TAF:

METAR-TAF

Aéroports :

Base aérienne 702 Avord

Avord, France

latitude: 47-03-12N, longitude: 002-37-57E, altitude: 177 m

Observation

Le bulletin a été fait il y a 26 minutes, à 02:30 UTC
Vent 6 kt de est/sud-est
Température 9°C
Humidité 66%
Pression 1024 hPa
Visibilité 10 km ou plus
pas de nuages en-dessous de 1500 mètres et pas de cumulonimbus.

METAR: LFOA 080230Z AUTO 11006KT CAVOK 09/03 Q1024

Heure: 04:56 (02:56 UTC)

Prévision

Le bulletin a été fait il y a 6 heures et 56 minutes, à 20:00 UTC
Prévision valable du 07 à 21 UTC au 08 à 21 UTC
Vent 6 kt de est/sud-est
Visibilité 10 km ou plus
pas de nuages en-dessous de 1500 mètres et pas de cumulonimbus.
Temporairement
du 08 à 10 UTC au 08 à 14 UTC
Vent 10 kt de sud/sud-ouest
Evoluant progressivement
du 08 à 17 UTC au 08 à 19 UTC
Vent 10 kt de nord/nord-est

TAF: LFOA 072000Z 0721/0821 12006KT CAVOK TEMPO 0810/0814 20010KT BECMG 0817/0819 02010KT

Observations et prévisions météorologiques de plus de 4000 aéroports (messages METAR et TAF).

Les stations disponibles sont représentées par des disques jaunes et rouges sur la carte.

Passer la souris dessus pour voir le nom de la station.

Cliquer dessus pour voir les observations et prévisions météorologiques.

Pour changer de carte: cliquez sur les boutons verts avec une croix noire pour zoomer, sur le bouton vert avec un tiret pour effectuer un zoom arrière, ou sur les flèches vertes pour les cartes adjacentes.


METAR-TAF: